sensor_id;sensor_type;location;lat;lon;timestamp;noise_LAeq;noise_LA_min;noise_LA_max;noise_LA01;noise_LA95
72466;Laerm;60471;52.150;4.508;2023-04-24T00:00:41;69.37;45.03;88.68;;
72466;Laerm;60471;52.150;4.508;2023-04-24T00:03:07;68.97;43.99;88.49;;
72466;Laerm;60471;52.150;4.508;2023-04-24T00:05:33;69.40;43.36;89.19;;
72466;Laerm;60471;52.150;4.508;2023-04-24T00:08:00;68.77;43.66;88.40;;
72466;Laerm;60471;52.150;4.508;2023-04-24T00:10:26;69.44;44.07;88.51;;
72466;Laerm;60471;52.150;4.508;2023-04-24T00:12:52;69.43;43.68;87.90;;
72466;Laerm;60471;52.150;4.508;2023-04-24T00:15:18;69.59;44.81;88.40;;
72466;Laerm;60471;52.150;4.508;2023-04-24T00:17:45;69.18;44.98;88.16;;
72466;Laerm;60471;52.150;4.508;2023-04-24T00:20:12;68.85;45.41;88.61;;
72466;Laerm;60471;52.150;4.508;2023-04-24T00:22:41;69.37;45.60;89.41;;
72466;Laerm;60471;52.150;4.508;2023-04-24T00:25:08;68.81;46.47;88.86;;
72466;Laerm;60471;52.150;4.508;2023-04-24T00:27:34;69.33;46.75;88.34;;
72466;Laerm;60471;52.150;4.508;2023-04-24T00:30:03;69.05;46.21;88.11;;
72466;Laerm;60471;52.150;4.508;2023-04-24T00:32:29;69.30;44.74;88.96;;
72466;Laerm;60471;52.150;4.508;2023-04-24T00:34:56;69.36;44.57;88.45;;
72466;Laerm;60471;52.150;4.508;2023-04-24T00:37:22;69.21;44.62;88.84;;
72466;Laerm;60471;52.150;4.508;2023-04-24T00:39:48;68.96;43.17;89.16;;
72466;Laerm;60471;52.150;4.508;2023-04-24T00:42:14;69.34;43.57;89.67;;
72466;Laerm;60471;52.150;4.508;2023-04-24T00:44:41;68.90;44.13;88.25;;
72466;Laerm;60471;52.150;4.508;2023-04-24T00:47:07;69.07;42.97;88.44;;
72466;Laerm;60471;52.150;4.508;2023-04-24T00:49:33;69.36;43.14;88.64;;
72466;Laerm;60471;52.150;4.508;2023-04-24T00:51:59;69.45;42.22;88.11;;
72466;Laerm;60471;52.150;4.508;2023-04-24T00:54:26;69.14;42.45;87.97;;
72466;Laerm;60471;52.150;4.508;2023-04-24T00:56:52;69.04;42.38;88.40;;
72466;Laerm;60471;52.150;4.508;2023-04-24T00:59:18;68.89;41.79;88.32;;
72466;Laerm;60471;52.150;4.508;2023-04-24T01:01:45;68.79;43.28;88.22;;
72466;Laerm;60471;52.150;4.508;2023-04-24T01:04:13;69.26;41.78;88.74;;
72466;Laerm;60471;52.150;4.508;2023-04-24T01:06:42;68.73;43.12;88.72;;
72466;Laerm;60471;52.150;4.508;2023-04-24T01:09:10;69.19;41.87;89.31;;
72466;Laerm;60471;52.150;4.508;2023-04-24T01:11:37;69.09;43.65;88.88;;
72466;Laerm;60471;52.150;4.508;2023-04-24T01:14:04;68.85;42.94;88.37;;
72466;Laerm;60471;52.150;4.508;2023-04-24T01:16:30;69.15;43.23;88.68;;
72466;Laerm;60471;52.150;4.508;2023-04-24T01:18:56;68.70;43.23;88.13;;
72466;Laerm;60471;52.150;4.508;2023-04-24T01:21:23;68.98;42.74;89.19;;
72466;Laerm;60471;52.150;4.508;2023-04-24T01:23:53;69.32;41.74;89.01;;
72466;Laerm;60471;52.150;4.508;2023-04-24T01:26:22;68.73;42.67;88.32;;
72466;Laerm;60471;52.150;4.508;2023-04-24T01:28:49;68.84;41.31;88.84;;
72466;Laerm;60471;52.150;4.508;2023-04-24T01:31:15;69.31;40.58;89.09;;
72466;Laerm;60471;52.150;4.508;2023-04-24T01:33:42;68.95;41.23;88.17;;
72466;Laerm;60471;52.150;4.508;2023-04-24T01:36:10;68.81;42.67;89.06;;
72466;Laerm;60471;52.150;4.508;2023-04-24T01:38:37;68.77;43.08;87.00;;
72466;Laerm;60471;52.150;4.508;2023-04-24T01:41:04;69.02;43.26;88.09;;
72466;Laerm;60471;52.150;4.508;2023-04-24T01:43:31;68.87;43.18;89.22;;
72466;Laerm;60471;52.150;4.508;2023-04-24T01:45:58;68.69;42.55;87.94;;
72466;Laerm;60471;52.150;4.508;2023-04-24T01:48:24;68.90;43.88;88.78;;
72466;Laerm;60471;52.150;4.508;2023-04-24T01:50:50;68.99;44.80;88.24;;
72466;Laerm;60471;52.150;4.508;2023-04-24T01:53:16;68.86;44.67;87.97;;
72466;Laerm;60471;52.150;4.508;2023-04-24T01:55:43;68.70;44.56;88.77;;
72466;Laerm;60471;52.150;4.508;2023-04-24T01:58:09;68.79;44.66;88.67;;
72466;Laerm;60471;52.150;4.508;2023-04-24T02:00:35;68.89;44.72;88.75;;
72466;Laerm;60471;52.150;4.508;2023-04-24T02:03:02;69.03;45.57;89.49;;
72466;Laerm;60471;52.150;4.508;2023-04-24T02:05:28;68.95;44.01;89.65;;
72466;Laerm;60471;52.150;4.508;2023-04-24T02:07:57;69.01;45.26;88.21;;
72466;Laerm;60471;52.150;4.508;2023-04-24T02:10:23;68.89;45.87;88.78;;
72466;Laerm;60471;52.150;4.508;2023-04-24T02:12:51;68.92;45.69;88.66;;
72466;Laerm;60471;52.150;4.508;2023-04-24T02:15:17;69.05;46.20;88.47;;
72466;Laerm;60471;52.150;4.508;2023-04-24T02:17:43;68.80;44.55;88.25;;
72466;Laerm;60471;52.150;4.508;2023-04-24T02:20:10;69.84;45.90;87.99;;
72466;Laerm;60471;52.150;4.508;2023-04-24T02:22:36;69.03;46.71;87.93;;
72466;Laerm;60471;52.150;4.508;2023-04-24T02:25:03;69.18;45.14;88.61;;
72466;Laerm;60471;52.150;4.508;2023-04-24T02:27:29;69.29;46.32;88.25;;
72466;Laerm;60471;52.150;4.508;2023-04-24T02:29:56;69.08;46.53;88.99;;
72466;Laerm;60471;52.150;4.508;2023-04-24T02:32:22;68.70;46.56;87.94;;
72466;Laerm;60471;52.150;4.508;2023-04-24T02:34:48;68.80;46.63;88.66;;
72466;Laerm;60471;52.150;4.508;2023-04-24T02:37:14;68.90;47.24;89.14;;
72466;Laerm;60471;52.150;4.508;2023-04-24T02:39:40;69.14;45.05;87.90;;
72466;Laerm;60471;52.150;4.508;2023-04-24T02:42:07;68.90;46.10;87.79;;
72466;Laerm;60471;52.150;4.508;2023-04-24T02:44:33;69.30;45.92;88.97;;
72466;Laerm;60471;52.150;4.508;2023-04-24T02:47:00;68.94;44.98;88.96;;
72466;Laerm;60471;52.150;4.508;2023-04-24T02:49:26;68.78;45.65;88.69;;
72466;Laerm;60471;52.150;4.508;2023-04-24T02:51:52;68.77;44.60;87.66;;
72466;Laerm;60471;52.150;4.508;2023-04-24T02:54:19;68.82;45.60;88.37;;
72466;Laerm;60471;52.150;4.508;2023-04-24T02:56:45;68.80;44.38;88.78;;
72466;Laerm;60471;52.150;4.508;2023-04-24T02:59:11;68.80;44.55;88.00;;
72466;Laerm;60471;52.150;4.508;2023-04-24T03:01:37;68.81;43.32;88.54;;
72466;Laerm;60471;52.150;4.508;2023-04-24T03:04:04;68.68;42.11;88.90;;
72466;Laerm;60471;52.150;4.508;2023-04-24T03:06:30;68.17;43.27;88.51;;
72466;Laerm;60471;52.150;4.508;2023-04-24T03:08:58;68.97;43.66;88.37;;
72466;Laerm;60471;52.150;4.508;2023-04-24T03:11:24;68.77;43.94;88.21;;
72466;Laerm;60471;52.150;4.508;2023-04-24T03:13:51;69.27;44.54;89.03;;
72466;Laerm;60471;52.150;4.508;2023-04-24T03:16:17;68.62;43.58;88.16;;
72466;Laerm;60471;52.150;4.508;2023-04-24T03:18:43;68.56;43.71;87.85;;
72466;Laerm;60471;52.150;4.508;2023-04-24T03:21:09;68.77;43.61;88.39;;
72466;Laerm;60471;52.150;4.508;2023-04-24T03:23:36;68.86;42.88;87.75;;
72466;Laerm;60471;52.150;4.508;2023-04-24T03:26:02;69.06;43.24;89.17;;
72466;Laerm;60471;52.150;4.508;2023-04-24T03:28:28;68.35;43.79;87.65;;
72466;Laerm;60471;52.150;4.508;2023-04-24T03:30:54;68.68;43.91;88.69;;
72466;Laerm;60471;52.150;4.508;2023-04-24T03:33:20;68.92;43.57;88.57;;
72466;Laerm;60471;52.150;4.508;2023-04-24T03:35:47;68.73;44.67;88.25;;
72466;Laerm;60471;52.150;4.508;2023-04-24T03:38:13;68.70;45.06;88.17;;
72466;Laerm;60471;52.150;4.508;2023-04-24T03:40:39;68.71;44.81;88.17;;
72466;Laerm;60471;52.150;4.508;2023-04-24T03:43:05;68.82;46.34;88.84;;
72466;Laerm;60471;52.150;4.508;2023-04-24T03:45:31;68.81;46.13;88.42;;
72466;Laerm;60471;52.150;4.508;2023-04-24T03:47:58;69.37;47.09;89.36;;
72466;Laerm;60471;52.150;4.508;2023-04-24T03:50:24;68.88;47.67;87.68;;
72466;Laerm;60471;52.150;4.508;2023-04-24T03:52:52;68.72;48.17;87.79;;
72466;Laerm;60471;52.150;4.508;2023-04-24T03:55:18;69.02;47.70;88.39;;
72466;Laerm;60471;52.150;4.508;2023-04-24T03:57:44;69.16;49.35;88.58;;
72466;Laerm;60471;52.150;4.508;2023-04-24T04:00:11;69.36;49.08;88.35;;
72466;Laerm;60471;52.150;4.508;2023-04-24T04:02:38;69.15;48.54;88.17;;
72466;Laerm;60471;52.150;4.508;2023-04-24T04:05:04;69.23;49.96;88.95;;
72466;Laerm;60471;52.150;4.508;2023-04-24T04:07:31;69.05;51.60;87.42;;
72466;Laerm;60471;52.150;4.508;2023-04-24T04:09:57;69.81;51.41;89.25;;
72466;Laerm;60471;52.150;4.508;2023-04-24T04:12:23;69.22;51.21;88.15;;
72466;Laerm;60471;52.150;4.508;2023-04-24T04:14:49;69.12;48.53;88.68;;
72466;Laerm;60471;52.150;4.508;2023-04-24T04:17:15;69.46;46.90;89.63;;
72466;Laerm;60471;52.150;4.508;2023-04-24T04:19:41;69.37;46.09;88.88;;
72466;Laerm;60471;52.150;4.508;2023-04-24T04:22:08;69.43;46.35;88.52;;
72466;Laerm;60471;52.150;4.508;2023-04-24T04:24:34;68.85;46.78;88.44;;
72466;Laerm;60471;52.150;4.508;2023-04-24T04:27:04;69.00;47.43;88.99;;
72466;Laerm;60471;52.150;4.508;2023-04-24T04:29:31;69.50;48.32;88.46;;
72466;Laerm;60471;52.150;4.508;2023-04-24T04:31:58;69.05;48.92;87.75;;
72466;Laerm;60471;52.150;4.508;2023-04-24T04:34:24;69.20;49.80;88.27;;
72466;Laerm;60471;52.150;4.508;2023-04-24T04:36:50;69.30;48.92;88.92;;
72466;Laerm;60471;52.150;4.508;2023-04-24T04:39:17;69.46;51.08;87.73;;
72466;Laerm;60471;52.150;4.508;2023-04-24T04:41:44;69.55;47.73;88.33;;
72466;Laerm;60471;52.150;4.508;2023-04-24T04:44:12;69.08;49.94;88.26;;
72466;Laerm;60471;52.150;4.508;2023-04-24T04:46:40;69.13;48.03;88.64;;
72466;Laerm;60471;52.150;4.508;2023-04-24T04:49:07;69.66;49.96;89.44;;
72466;Laerm;60471;52.150;4.508;2023-04-24T04:51:34;69.62;50.63;88.62;;
72466;Laerm;60471;52.150;4.508;2023-04-24T04:54:00;69.31;48.92;89.36;;
72466;Laerm;60471;52.150;4.508;2023-04-24T04:56:27;69.52;48.66;88.39;;
72466;Laerm;60471;52.150;4.508;2023-04-24T04:58:53;69.81;50.64;89.03;;
72466;Laerm;60471;52.150;4.508;2023-04-24T05:01:19;69.37;50.35;87.96;;
72466;Laerm;60471;52.150;4.508;2023-04-24T05:03:46;69.33;51.69;89.14;;
72466;Laerm;60471;52.150;4.508;2023-04-24T05:06:12;69.30;50.12;87.90;;
72466;Laerm;60471;52.150;4.508;2023-04-24T05:08:38;69.22;49.50;88.96;;
72466;Laerm;60471;52.150;4.508;2023-04-24T05:11:04;69.45;48.72;88.92;;
72466;Laerm;60471;52.150;4.508;2023-04-24T05:13:31;69.41;48.17;87.30;;
72466;Laerm;60471;52.150;4.508;2023-04-24T05:15:57;69.59;51.61;89.96;;
72466;Laerm;60471;52.150;4.508;2023-04-24T05:18:24;69.49;51.09;89.10;;
72466;Laerm;60471;52.150;4.508;2023-04-24T05:20:50;69.70;51.36;88.72;;
72466;Laerm;60471;52.150;4.508;2023-04-24T05:23:16;69.23;49.54;89.03;;
72466;Laerm;60471;52.150;4.508;2023-04-24T05:25:42;69.41;50.35;88.63;;
72466;Laerm;60471;52.150;4.508;2023-04-24T05:28:09;69.14;48.68;88.17;;
72466;Laerm;60471;52.150;4.508;2023-04-24T05:30:35;69.19;49.87;88.14;;
72466;Laerm;60471;52.150;4.508;2023-04-24T05:33:02;70.04;50.30;89.38;;
72466;Laerm;60471;52.150;4.508;2023-04-24T05:35:28;69.75;51.59;88.76;;
72466;Laerm;60471;52.150;4.508;2023-04-24T05:37:54;69.86;50.24;89.17;;
72466;Laerm;60471;52.150;4.508;2023-04-24T05:40:21;69.67;48.42;89.30;;
72466;Laerm;60471;52.150;4.508;2023-04-24T05:42:47;69.60;51.17;88.59;;
72466;Laerm;60471;52.150;4.508;2023-04-24T05:45:13;69.51;51.98;88.75;;
72466;Laerm;60471;52.150;4.508;2023-04-24T05:47:43;69.44;50.88;88.55;;
72466;Laerm;60471;52.150;4.508;2023-04-24T05:50:11;69.27;51.53;89.03;;
72466;Laerm;60471;52.150;4.508;2023-04-24T05:52:37;69.71;49.02;88.39;;
72466;Laerm;60471;52.150;4.508;2023-04-24T05:55:04;69.69;51.99;89.53;;
72466;Laerm;60471;52.150;4.508;2023-04-24T05:57:31;69.60;49.43;88.94;;
72466;Laerm;60471;52.150;4.508;2023-04-24T05:59:57;69.89;51.97;88.00;;
72466;Laerm;60471;52.150;4.508;2023-04-24T06:02:23;69.82;48.72;87.88;;
72466;Laerm;60471;52.150;4.508;2023-04-24T06:04:49;70.00;52.76;89.40;;
72466;Laerm;60471;52.150;4.508;2023-04-24T06:07:16;69.44;49.07;87.92;;
72466;Laerm;60471;52.150;4.508;2023-04-24T06:09:42;69.93;52.53;89.20;;
72466;Laerm;60471;52.150;4.508;2023-04-24T06:12:08;69.81;50.35;88.48;;
72466;Laerm;60471;52.150;4.508;2023-04-24T06:14:34;69.27;48.80;87.69;;
72466;Laerm;60471;52.150;4.508;2023-04-24T06:17:01;69.77;50.32;87.83;;
72466;Laerm;60471;52.150;4.508;2023-04-24T06:19:27;69.81;49.80;89.19;;
72466;Laerm;60471;52.150;4.508;2023-04-24T06:21:53;69.89;53.39;87.50;;
72466;Laerm;60471;52.150;4.508;2023-04-24T06:24:19;69.80;50.26;88.23;;
72466;Laerm;60471;52.150;4.508;2023-04-24T06:26:46;69.49;51.16;89.16;;
72466;Laerm;60471;52.150;4.508;2023-04-24T06:29:12;69.86;51.31;89.76;;
72466;Laerm;60471;52.150;4.508;2023-04-24T06:31:38;70.05;49.59;88.11;;
72466;Laerm;60471;52.150;4.508;2023-04-24T06:34:04;69.71;51.85;87.54;;
72466;Laerm;60471;52.150;4.508;2023-04-24T06:36:31;69.51;50.92;87.73;;
72466;Laerm;60471;52.150;4.508;2023-04-24T06:38:58;69.73;50.52;89.17;;
72466;Laerm;60471;52.150;4.508;2023-04-24T06:41:24;69.81;49.43;88.69;;
72466;Laerm;60471;52.150;4.508;2023-04-24T06:43:51;69.68;50.00;88.50;;
72466;Laerm;60471;52.150;4.508;2023-04-24T06:46:17;70.10;49.60;89.19;;
72466;Laerm;60471;52.150;4.508;2023-04-24T06:48:43;69.42;50.90;88.10;;
72466;Laerm;60471;52.150;4.508;2023-04-24T06:51:09;69.61;51.29;89.35;;
72466;Laerm;60471;52.150;4.508;2023-04-24T06:53:36;69.88;51.19;88.94;;
72466;Laerm;60471;52.150;4.508;2023-04-24T06:56:02;69.87;50.95;87.63;;
72466;Laerm;60471;52.150;4.508;2023-04-24T06:58:30;69.59;51.55;87.87;;
72466;Laerm;60471;52.150;4.508;2023-04-24T07:00:56;70.04;51.70;88.97;;
72466;Laerm;60471;52.150;4.508;2023-04-24T07:03:23;69.56;51.11;88.72;;
72466;Laerm;60471;52.150;4.508;2023-04-24T07:05:49;69.62;50.83;87.87;;
72466;Laerm;60471;52.150;4.508;2023-04-24T07:08:15;69.24;50.34;87.84;;
72466;Laerm;60471;52.150;4.508;2023-04-24T07:10:44;69.85;50.35;89.68;;
72466;Laerm;60471;52.150;4.508;2023-04-24T07:13:10;69.55;48.20;88.08;;
72466;Laerm;60471;52.150;4.508;2023-04-24T07:15:37;69.22;49.00;88.16;;
72466;Laerm;60471;52.150;4.508;2023-04-24T07:18:03;69.62;49.40;89.00;;
72466;Laerm;60471;52.150;4.508;2023-04-24T07:20:29;69.45;52.27;88.21;;
72466;Laerm;60471;52.150;4.508;2023-04-24T07:22:56;69.89;51.10;89.08;;
72466;Laerm;60471;52.150;4.508;2023-04-24T07:25:22;69.24;49.83;88.85;;
72466;Laerm;60471;52.150;4.508;2023-04-24T07:27:48;69.58;48.99;87.53;;
72466;Laerm;60471;52.150;4.508;2023-04-24T07:30:15;69.73;50.75;88.50;;
72466;Laerm;60471;52.150;4.508;2023-04-24T07:32:41;69.59;50.63;88.64;;
72466;Laerm;60471;52.150;4.508;2023-04-24T07:35:08;69.90;51.45;89.54;;
72466;Laerm;60471;52.150;4.508;2023-04-24T07:37:36;69.35;50.24;89.31;;
72466;Laerm;60471;52.150;4.508;2023-04-24T07:40:03;69.70;48.99;89.19;;
72466;Laerm;60471;52.150;4.508;2023-04-24T07:42:29;69.73;52.55;89.17;;
72466;Laerm;60471;52.150;4.508;2023-04-24T07:44:56;69.41;49.52;88.55;;
72466;Laerm;60471;52.150;4.508;2023-04-24T07:47:23;69.32;52.08;89.21;;
72466;Laerm;60471;52.150;4.508;2023-04-24T07:49:49;69.94;49.95;89.82;;
72466;Laerm;60471;52.150;4.508;2023-04-24T07:52:15;69.45;49.72;87.89;;
72466;Laerm;60471;52.150;4.508;2023-04-24T07:54:41;69.18;48.89;88.10;;
72466;Laerm;60471;52.150;4.508;2023-04-24T07:57:08;69.43;49.76;88.29;;
72466;Laerm;60471;52.150;4.508;2023-04-24T07:59:35;69.91;52.22;89.57;;
72466;Laerm;60471;52.150;4.508;2023-04-24T08:02:01;69.75;51.94;89.17;;
72466;Laerm;60471;52.150;4.508;2023-04-24T08:04:27;69.53;52.32;88.86;;
72466;Laerm;60471;52.150;4.508;2023-04-24T08:06:53;69.61;50.67;89.10;;
72466;Laerm;60471;52.150;4.508;2023-04-24T08:09:20;69.86;49.67;89.21;;
72466;Laerm;60471;52.150;4.508;2023-04-24T08:11:46;69.78;48.74;89.43;;
72466;Laerm;60471;52.150;4.508;2023-04-24T08:14:12;69.75;50.53;89.03;;
72466;Laerm;60471;52.150;4.508;2023-04-24T08:16:39;69.64;50.02;88.29;;
72466;Laerm;60471;52.150;4.508;2023-04-24T08:19:05;69.49;51.81;88.86;;
72466;Laerm;60471;52.150;4.508;2023-04-24T08:21:32;69.45;50.90;88.67;;
72466;Laerm;60471;52.150;4.508;2023-04-24T08:23:58;69.41;51.79;89.28;;
72466;Laerm;60471;52.150;4.508;2023-04-24T08:26:24;69.34;50.93;89.14;;
72466;Laerm;60471;52.150;4.508;2023-04-24T08:28:50;69.61;51.44;89.11;;
72466;Laerm;60471;52.150;4.508;2023-04-24T08:31:17;69.50;52.34;88.90;;
72466;Laerm;60471;52.150;4.508;2023-04-24T08:33:43;69.66;50.95;88.64;;
72466;Laerm;60471;52.150;4.508;2023-04-24T08:36:10;69.44;52.90;88.67;;
72466;Laerm;60471;52.150;4.508;2023-04-24T08:38:37;69.54;51.86;89.26;;
72466;Laerm;60471;52.150;4.508;2023-04-24T08:41:03;69.61;53.81;89.11;;
72466;Laerm;60471;52.150;4.508;2023-04-24T08:43:33;69.66;51.48;89.34;;
72466;Laerm;60471;52.150;4.508;2023-04-24T08:46:04;68.96;49.71;88.04;;
72466;Laerm;60471;52.150;4.508;2023-04-24T08:48:31;69.31;50.50;89.21;;
72466;Laerm;60471;52.150;4.508;2023-04-24T08:50:58;69.39;48.54;89.66;;
72466;Laerm;60471;52.150;4.508;2023-04-24T08:53:26;69.20;49.53;88.42;;
72466;Laerm;60471;52.150;4.508;2023-04-24T08:55:55;69.53;51.54;88.41;;
72466;Laerm;60471;52.150;4.508;2023-04-24T08:58:25;69.82;52.21;89.79;;
72466;Laerm;60471;52.150;4.508;2023-04-24T09:00:55;69.91;51.44;88.97;;
72466;Laerm;60471;52.150;4.508;2023-04-24T09:03:22;69.47;51.24;88.70;;
72466;Laerm;60471;52.150;4.508;2023-04-24T09:05:49;69.87;51.94;88.96;;
72466;Laerm;60471;52.150;4.508;2023-04-24T09:08:18;69.22;49.82;89.37;;
72466;Laerm;60471;52.150;4.508;2023-04-24T09:10:45;69.74;50.22;88.73;;
72466;Laerm;60471;52.150;4.508;2023-04-24T09:13:11;69.62;51.21;89.09;;
72466;Laerm;60471;52.150;4.508;2023-04-24T09:15:39;69.69;51.85;89.55;;
72466;Laerm;60471;52.150;4.508;2023-04-24T09:18:06;69.56;50.09;88.76;;
72466;Laerm;60471;52.150;4.508;2023-04-24T09:20:33;69.95;48.64;87.50;;
72466;Laerm;60471;52.150;4.508;2023-04-24T09:22:59;69.21;51.18;89.55;;
72466;Laerm;60471;52.150;4.508;2023-04-24T09:25:35;69.11;48.96;89.12;;
72466;Laerm;60471;52.150;4.508;2023-04-24T09:28:04;69.58;48.96;89.40;;
72466;Laerm;60471;52.150;4.508;2023-04-24T09:30:32;69.62;52.03;87.65;;
72466;Laerm;60471;52.150;4.508;2023-04-24T09:33:18;68.77;50.46;88.30;;
72466;Laerm;60471;52.150;4.508;2023-04-24T09:35:51;69.00;52.47;88.07;;
72466;Laerm;60471;52.150;4.508;2023-04-24T09:38:18;68.75;49.61;86.89;;
72466;Laerm;60471;52.150;4.508;2023-04-24T09:40:44;69.08;50.33;88.81;;
72466;Laerm;60471;52.150;4.508;2023-04-24T09:43:11;69.22;51.31;88.63;;
72466;Laerm;60471;52.150;4.508;2023-04-24T09:45:39;69.67;52.63;88.75;;
72466;Laerm;60471;52.150;4.508;2023-04-24T09:48:09;69.22;53.69;88.41;;
72466;Laerm;60471;52.150;4.508;2023-04-24T09:50:36;69.88;51.16;89.35;;
72466;Laerm;60471;52.150;4.508;2023-04-24T09:53:05;69.76;50.71;88.98;;
72466;Laerm;60471;52.150;4.508;2023-04-24T09:55:31;69.36;51.96;88.81;;
72466;Laerm;60471;52.150;4.508;2023-04-24T09:58:00;69.56;50.08;88.91;;
72466;Laerm;60471;52.150;4.508;2023-04-24T10:00:29;69.50;50.91;88.74;;
72466;Laerm;60471;52.150;4.508;2023-04-24T10:03:04;69.19;48.91;88.92;;
72466;Laerm;60471;52.150;4.508;2023-04-24T10:05:37;69.51;49.77;88.78;;
72466;Laerm;60471;52.150;4.508;2023-04-24T10:08:09;69.62;51.53;89.19;;
72466;Laerm;60471;52.150;4.508;2023-04-24T10:10:41;69.90;50.66;88.57;;
72466;Laerm;60471;52.150;4.508;2023-04-24T10:13:09;69.22;51.99;88.98;;
72466;Laerm;60471;52.150;4.508;2023-04-24T10:15:41;69.16;49.10;88.94;;
72466;Laerm;60471;52.150;4.508;2023-04-24T10:18:09;68.79;49.98;89.29;;
72466;Laerm;60471;52.150;4.508;2023-04-24T10:20:38;68.62;48.72;88.01;;
72466;Laerm;60471;52.150;4.508;2023-04-24T10:23:05;68.80;51.78;88.02;;
72466;Laerm;60471;52.150;4.508;2023-04-24T10:25:34;68.07;49.62;87.45;;
72466;Laerm;60471;52.150;4.508;2023-04-24T10:28:02;68.65;51.90;88.73;;
72466;Laerm;60471;52.150;4.508;2023-04-24T10:30:34;68.07;51.97;88.10;;
72466;Laerm;60471;52.150;4.508;2023-04-24T10:33:03;68.20;49.75;88.32;;
72466;Laerm;60471;52.150;4.508;2023-04-24T10:35:32;68.52;52.43;88.48;;
72466;Laerm;60471;52.150;4.508;2023-04-24T10:38:13;68.45;51.97;88.15;;
72466;Laerm;60471;52.150;4.508;2023-04-24T10:40:42;68.17;50.18;87.70;;
72466;Laerm;60471;52.150;4.508;2023-04-24T10:43:10;68.02;51.13;88.58;;
72466;Laerm;60471;52.150;4.508;2023-04-24T10:45:38;68.06;51.06;88.33;;
72466;Laerm;60471;52.150;4.508;2023-04-24T10:48:08;68.65;52.26;87.74;;
72466;Laerm;60471;52.150;4.508;2023-04-24T10:50:46;68.75;49.66;87.87;;
72466;Laerm;60471;52.150;4.508;2023-04-24T10:53:22;68.83;51.10;88.88;;
72466;Laerm;60471;52.150;4.508;2023-04-24T10:56:04;68.45;50.24;88.06;;
72466;Laerm;60471;52.150;4.508;2023-04-24T10:58:42;67.97;49.93;87.83;;
72466;Laerm;60471;52.150;4.508;2023-04-24T11:01:29;61.72;49.42;72.89;;
72466;Laerm;60471;52.150;4.508;2023-04-24T11:04:02;67.61;49.47;88.66;;
72466;Laerm;60471;52.150;4.508;2023-04-24T11:06:33;58.23;48.34;72.94;;
72466;Laerm;60471;52.150;4.508;2023-04-24T11:09:09;70.14;48.24;88.16;;
72466;Laerm;60471;52.150;4.508;2023-04-24T11:11:44;68.75;49.75;89.29;;
72466;Laerm;60471;52.150;4.508;2023-04-24T11:14:16;69.16;51.47;89.52;;
72466;Laerm;60471;52.150;4.508;2023-04-24T11:16:53;68.02;48.72;88.37;;
72466;Laerm;60471;52.150;4.508;2023-04-24T11:19:24;69.04;49.24;88.12;;
72466;Laerm;60471;52.150;4.508;2023-04-24T11:22:14;67.14;48.34;87.62;;
72466;Laerm;60471;52.150;4.508;2023-04-24T11:27:15;60.37;50.10;82.03;;
72466;Laerm;60471;52.150;4.508;2023-04-24T11:29:48;67.29;49.40;88.08;;
72466;Laerm;60471;52.150;4.508;2023-04-24T11:34:59;67.70;50.34;87.67;;
72466;Laerm;60471;52.150;4.508;2023-04-24T11:37:35;65.91;49.76;86.11;;
72466;Laerm;60471;52.150;4.508;2023-04-24T11:40:07;63.21;55.15;77.89;;
72466;Laerm;60471;52.150;4.508;2023-04-24T11:42:39;62.97;53.12;71.78;;
72466;Laerm;60471;52.150;4.508;2023-04-24T11:45:18;61.39;50.23;71.02;;
72466;Laerm;60471;52.150;4.508;2023-04-24T11:47:45;63.44;51.00;86.55;;
72466;Laerm;60471;52.150;4.508;2023-04-24T11:50:15;66.95;51.82;88.31;;
72466;Laerm;60471;52.150;4.508;2023-04-24T11:52:44;67.97;53.40;89.33;;
72466;Laerm;60471;52.150;4.508;2023-04-24T11:57:46;69.56;51.73;88.24;;
72466;Laerm;60471;52.150;4.508;2023-04-24T12:00:24;69.36;52.53;89.21;;
72466;Laerm;60471;52.150;4.508;2023-04-24T12:02:59;69.23;51.95;89.25;;
72466;Laerm;60471;52.150;4.508;2023-04-24T12:05:29;69.25;53.29;88.60;;
72466;Laerm;60471;52.150;4.508;2023-04-24T12:07:57;69.33;52.25;88.85;;
72466;Laerm;60471;52.150;4.508;2023-04-24T12:10:27;68.99;51.78;88.71;;
72466;Laerm;60471;52.150;4.508;2023-04-24T12:12:56;69.79;48.95;88.35;;
72466;Laerm;60471;52.150;4.508;2023-04-24T12:15:24;69.02;50.25;89.15;;
72466;Laerm;60471;52.150;4.508;2023-04-24T12:17:52;68.90;52.75;87.03;;
72466;Laerm;60471;52.150;4.508;2023-04-24T12:20:26;67.69;51.65;86.36;;
72466;Laerm;60471;52.150;4.508;2023-04-24T12:22:55;63.50;52.86;74.04;;
72466;Laerm;60471;52.150;4.508;2023-04-24T12:25:25;62.69;52.70;72.18;;
72466;Laerm;60471;52.150;4.508;2023-04-24T12:28:09;60.77;51.80;69.40;;
72466;Laerm;60471;52.150;4.508;2023-04-24T12:30:47;61.27;52.58;69.58;;
72466;Laerm;60471;52.150;4.508;2023-04-24T12:33:19;61.75;51.72;75.75;;
72466;Laerm;60471;52.150;4.508;2023-04-24T12:35:45;61.19;54.38;71.98;;
72466;Laerm;60471;52.150;4.508;2023-04-24T12:38:13;61.88;54.16;77.81;;
72466;Laerm;60471;52.150;4.508;2023-04-24T12:40:42;61.86;54.04;71.69;;
72466;Laerm;60471;52.150;4.508;2023-04-24T12:43:17;61.85;52.38;71.54;;
72466;Laerm;60471;52.150;4.508;2023-04-24T12:45:44;62.19;52.56;73.59;;
72466;Laerm;60471;52.150;4.508;2023-04-24T12:48:13;62.09;51.50;72.07;;
72466;Laerm;60471;52.150;4.508;2023-04-24T12:50:43;60.98;52.51;70.77;;
72466;Laerm;60471;52.150;4.508;2023-04-24T12:53:10;61.62;53.12;71.62;;
72466;Laerm;60471;52.150;4.508;2023-04-24T12:55:37;61.38;52.51;72.80;;
72466;Laerm;60471;52.150;4.508;2023-04-24T12:58:03;62.24;52.26;69.18;;
72466;Laerm;60471;52.150;4.508;2023-04-24T13:00:29;60.66;51.73;70.35;;
72466;Laerm;60471;52.150;4.508;2023-04-24T13:02:55;59.19;51.40;66.26;;
72466;Laerm;60471;52.150;4.508;2023-04-24T13:05:22;58.99;50.54;69.12;;
72466;Laerm;60471;52.150;4.508;2023-04-24T13:07:48;60.88;52.72;71.95;;
72466;Laerm;60471;52.150;4.508;2023-04-24T13:10:14;59.57;51.73;76.36;;
72466;Laerm;60471;52.150;4.508;2023-04-24T13:12:40;59.66;52.54;68.39;;
72466;Laerm;60471;52.150;4.508;2023-04-24T13:15:07;59.11;49.88;70.00;;
72466;Laerm;60471;52.150;4.508;2023-04-24T13:17:33;59.97;51.04;71.42;;
72466;Laerm;60471;52.150;4.508;2023-04-24T13:20:00;61.09;52.32;69.65;;
72466;Laerm;60471;52.150;4.508;2023-04-24T13:22:26;61.09;53.95;72.57;;
72466;Laerm;60471;52.150;4.508;2023-04-24T13:24:53;60.19;52.91;76.42;;
72466;Laerm;60471;52.150;4.508;2023-04-24T13:27:19;60.52;51.62;76.88;;
72466;Laerm;60471;52.150;4.508;2023-04-24T13:29:45;61.96;52.69;70.32;;
72466;Laerm;60471;52.150;4.508;2023-04-24T13:32:12;62.78;54.51;76.05;;
72466;Laerm;60471;52.150;4.508;2023-04-24T13:34:38;62.10;52.68;74.02;;
72466;Laerm;60471;52.150;4.508;2023-04-24T13:37:05;62.06;53.43;71.60;;
72466;Laerm;60471;52.150;4.508;2023-04-24T13:39:32;61.24;52.42;71.01;;
72466;Laerm;60471;52.150;4.508;2023-04-24T13:41:58;61.31;51.89;70.55;;
72466;Laerm;60471;52.150;4.508;2023-04-24T13:44:25;60.99;52.53;73.05;;
72466;Laerm;60471;52.150;4.508;2023-04-24T13:46:55;62.57;52.03;72.31;;
72466;Laerm;60471;52.150;4.508;2023-04-24T13:49:24;61.13;49.96;71.14;;
72466;Laerm;60471;52.150;4.508;2023-04-24T13:51:53;62.18;51.60;71.99;;
72466;Laerm;60471;52.150;4.508;2023-04-24T13:54:19;62.25;51.11;74.41;;